createdAt,value
2022-08-17T00:00:40.318Z,42.17
2022-08-17T00:03:15.105Z,42.43
2022-08-17T00:05:50.400Z,42.37
2022-08-17T00:08:21.200Z,42.46
2022-08-17T00:10:50.683Z,42.31
2022-08-17T00:13:25.280Z,42.23
2022-08-17T00:15:58.652Z,41.85
2022-08-17T00:19:01.587Z,42.42
2022-08-17T00:21:23.779Z,42.45
2022-08-17T00:23:54.060Z,42.58
2022-08-17T00:26:43.550Z,42.58
2022-08-17T00:29:19.411Z,42.61
2022-08-17T00:31:48.903Z,42.62
2022-08-17T00:34:17.941Z,42.93
2022-08-17T00:36:47.692Z,42.90
2022-08-17T00:39:16.117Z,42.92
2022-08-17T00:41:44.677Z,42.14
2022-08-17T00:44:13.149Z,42.50
2022-08-17T00:46:43.572Z,42.96
2022-08-17T00:49:13.462Z,42.87
2022-08-17T00:51:44.157Z,42.89
2022-08-17T00:54:16.542Z,42.60
2022-08-17T00:56:54.594Z,42.68
2022-08-17T00:59:24.766Z,43.30
2022-08-17T01:01:53.559Z,43.17
2022-08-17T01:04:22.700Z,43.08
2022-08-17T01:06:53.599Z,42.87
2022-08-17T01:09:24.107Z,42.55
2022-08-17T01:11:52.913Z,42.57
2022-08-17T01:14:22.274Z,43.15
2022-08-17T01:16:51.604Z,43.05
2022-08-17T01:19:23.598Z,43.36
2022-08-17T01:21:55.813Z,43.38
2022-08-17T01:24:25.744Z,43.29
2022-08-17T01:26:56.591Z,43.12
2022-08-17T01:29:26.982Z,43.17
2022-08-17T01:31:58.716Z,43.14
2022-08-17T01:34:28.241Z,42.56
2022-08-17T01:37:12.127Z,42.74
2022-08-17T01:39:45.022Z,43.02
2022-08-17T01:42:18.854Z,43.25
2022-08-17T01:44:47.270Z,43.07
2022-08-17T01:47:15.697Z,43.45
2022-08-17T01:49:44.108Z,43.92
2022-08-17T01:52:13.266Z,43.49
2022-08-17T01:54:45.016Z,43.39
2022-08-17T01:57:13.648Z,43.55
2022-08-17T01:59:42.330Z,43.65
2022-08-17T02:02:11.334Z,43.63
2022-08-17T02:04:58.614Z,43.38
2022-08-17T02:07:27.173Z,43.74
2022-08-17T02:09:57.555Z,43.49
2022-08-17T02:12:39.065Z,43.45
2022-08-17T02:15:12.522Z,43.97
2022-08-17T02:17:41.551Z,43.48
2022-08-17T02:20:11.367Z,43.74
2022-08-17T02:22:41.774Z,43.87
2022-08-17T02:25:14.667Z,43.61
2022-08-17T02:27:43.462Z,43.40
2022-08-17T02:30:59.600Z,43.56
2022-08-17T02:33:04.203Z,43.59
2022-08-17T02:35:34.722Z,43.47
2022-08-17T02:38:04.603Z,44.33
2022-08-17T02:40:36.414Z,44.14
2022-08-17T02:43:05.469Z,44.51
2022-08-17T02:45:33.973Z,44.13
2022-08-17T02:48:02.491Z,44.08
2022-08-17T02:50:30.911Z,44.38
2022-08-17T02:53:02.351Z,44.22
2022-08-17T02:55:33.626Z,44.51
2022-08-17T02:58:03.744Z,44.23
2022-08-17T03:00:34.229Z,44.05
2022-08-17T03:03:04.579Z,44.30
2022-08-17T03:05:35.051Z,44.47
2022-08-17T03:08:04.458Z,44.42
2022-08-17T03:10:33.162Z,44.50
2022-08-17T03:13:03.024Z,44.46
2022-08-17T03:15:34.427Z,44.27
2022-08-17T03:18:03.755Z,44.38
2022-08-17T03:20:33.874Z,44.38
2022-08-17T03:23:03.148Z,44.23
2022-08-17T03:25:34.536Z,44.29
2022-08-17T03:28:05.012Z,44.10
2022-08-17T03:30:34.103Z,44.03
2022-08-17T03:33:06.247Z,43.83
2022-08-17T03:35:36.454Z,44.11
2022-08-17T03:38:05.489Z,44.35
2022-08-17T03:40:57.161Z,44.20
2022-08-17T03:43:24.253Z,44.34
2022-08-17T03:46:27.121Z,44.61
2022-08-17T03:49:15.298Z,44.29
2022-08-17T03:52:01.174Z,44.02
2022-08-17T03:54:47.107Z,44.32
2022-08-17T03:57:15.495Z,44.54
2022-08-17T03:59:45.399Z,44.32
2022-08-17T04:02:17.460Z,44.76
2022-08-17T04:04:46.030Z,44.35
2022-08-17T04:07:14.466Z,44.30
2022-08-17T04:09:43.545Z,44.10
2022-08-17T04:12:12.613Z,44.11
2022-08-17T04:14:53.656Z,43.94
2022-08-17T04:17:25.949Z,44.06
2022-08-17T04:19:55.216Z,43.56
2022-08-17T04:22:31.794Z,44.47
2022-08-17T04:25:07.416Z,44.87
2022-08-17T04:27:35.894Z,45.68
2022-08-17T04:30:06.900Z,46.03
2022-08-17T04:33:04.430Z,45.37
2022-08-17T04:35:36.614Z,45.21
2022-08-17T04:38:05.210Z,45.24
2022-08-17T04:40:51.426Z,44.94
2022-08-17T04:43:22.220Z,45.12
2022-08-17T04:45:56.268Z,45.10
2022-08-17T04:48:35.331Z,45.52
2022-08-17T04:51:07.408Z,45.43
2022-08-17T04:53:35.992Z,45.47
2022-08-17T04:56:05.245Z,45.50
2022-08-17T04:58:33.708Z,45.54
2022-08-17T05:01:02.416Z,45.68
2022-08-17T05:03:32.326Z,45.59
2022-08-17T05:06:00.763Z,45.67
2022-08-17T05:08:29.262Z,45.77
2022-08-17T05:10:57.745Z,45.70
2022-08-17T05:13:27.465Z,46.15
2022-08-17T05:15:58.203Z,45.93
2022-08-17T05:18:27.638Z,46.29
2022-08-17T05:20:58.851Z,46.58
2022-08-17T05:23:41.624Z,46.66
2022-08-17T05:26:21.963Z,46.74
2022-08-17T05:28:57.198Z,46.77
2022-08-17T05:31:29.471Z,46.90
2022-08-17T05:33:58.255Z,46.67
2022-08-17T05:36:42.266Z,46.47
2022-08-17T05:39:16.192Z,46.90
2022-08-17T05:41:48.778Z,46.74
2022-08-17T05:44:17.807Z,46.71
2022-08-17T05:46:50.547Z,46.97
2022-08-17T05:49:22.302Z,47.20
2022-08-17T05:52:10.877Z,47.19
2022-08-17T05:54:50.055Z,47.32
2022-08-17T05:57:32.597Z,47.41
2022-08-17T06:00:08.715Z,47.38
2022-08-17T06:02:52.245Z,47.30
2022-08-17T06:05:34.699Z,47.28
2022-08-17T06:08:24.671Z,47.52
2022-08-17T06:10:58.521Z,47.72
2022-08-17T06:13:40.003Z,47.72
2022-08-17T06:16:33.794Z,47.43
2022-08-17T06:19:02.337Z,47.96
2022-08-17T06:21:35.536Z,47.97
2022-08-17T06:24:08.435Z,48.13
2022-08-17T06:26:43.042Z,47.92
2022-08-17T06:29:18.546Z,48.16
2022-08-17T06:31:47.416Z,47.71
2022-08-17T06:34:15.981Z,48.10
2022-08-17T06:36:50.553Z,48.00
2022-08-17T06:39:29.720Z,48.22
2022-08-17T06:42:54.958Z,48.12
2022-08-17T06:45:07.958Z,48.34
2022-08-17T06:47:38.625Z,47.99
2022-08-17T06:50:14.674Z,47.88
2022-08-17T06:52:48.543Z,47.94
2022-08-17T06:55:23.071Z,47.90
2022-08-17T06:57:53.837Z,48.01
2022-08-17T07:00:24.643Z,47.81
2022-08-17T07:02:57.238Z,48.08
2022-08-17T07:05:36.567Z,47.79
2022-08-17T07:08:11.690Z,48.06
2022-08-17T07:10:44.552Z,47.72
2022-08-17T07:13:31.116Z,47.87
2022-08-17T07:16:09.247Z,47.54
2022-08-17T07:18:37.814Z,47.66
2022-08-17T07:21:17.498Z,47.51
2022-08-17T07:24:02.675Z,47.20
2022-08-17T07:26:32.616Z,47.08
2022-08-17T07:29:02.363Z,47.09
2022-08-17T07:31:33.492Z,46.91
2022-08-17T07:34:07.995Z,46.66
2022-08-17T07:36:36.766Z,46.90
2022-08-17T07:39:05.496Z,46.62
2022-08-17T07:41:53.391Z,46.37
2022-08-17T07:44:26.696Z,46.77
2022-08-17T07:47:13.261Z,46.58
2022-08-17T07:49:46.006Z,46.81
2022-08-17T07:52:51.828Z,46.50
2022-08-17T07:55:29.359Z,46.48
2022-08-17T07:58:00.903Z,46.10
2022-08-17T08:00:32.249Z,46.49
2022-08-17T08:03:18.571Z,46.22
2022-08-17T08:05:53.526Z,46.52
2022-08-17T08:08:28.510Z,46.48
2022-08-17T08:11:03.777Z,46.68
2022-08-17T08:13:34.302Z,46.56
2022-08-17T08:16:24.345Z,46.39
2022-08-17T08:18:57.339Z,46.36
2022-08-17T08:25:31.938Z,46.31
2022-08-17T08:28:11.828Z,45.98
2022-08-17T08:30:47.444Z,45.94
2022-08-17T08:33:27.131Z,45.84
2022-08-17T08:35:58.852Z,45.37
2022-08-17T08:38:35.602Z,45.34
2022-08-17T08:41:17.297Z,45.09
2022-08-17T08:43:53.439Z,44.89
2022-08-17T08:46:30.185Z,45.23
2022-08-17T08:49:10.189Z,45.82
2022-08-17T08:51:48.263Z,45.31
2022-08-17T08:54:33.379Z,45.17
2022-08-17T08:57:24.296Z,44.76
2022-08-17T09:00:03.604Z,44.36
2022-08-17T09:02:47.360Z,44.74
2022-08-17T09:05:26.077Z,44.71
2022-08-17T09:08:05.715Z,44.56
2022-08-17T09:10:40.632Z,44.50
2022-08-17T09:13:15.107Z,44.52
2022-08-17T09:15:46.351Z,44.19
2022-08-17T09:19:03.411Z,44.11
2022-08-17T09:21:12.547Z,44.25
2022-08-17T09:23:59.328Z,44.18
2022-08-17T09:26:31.783Z,44.00
2022-08-17T09:29:03.009Z,44.19
2022-08-17T09:31:35.557Z,44.11
2022-08-17T09:34:21.250Z,44.00
2022-08-17T09:37:02.301Z,43.58
2022-08-17T09:39:35.974Z,43.39
2022-08-17T09:42:08.950Z,43.19
2022-08-17T09:44:40.612Z,43.20
2022-08-17T09:47:15.500Z,43.13
2022-08-17T09:49:50.775Z,43.16
2022-08-17T09:52:23.043Z,42.50
2022-08-17T09:54:54.118Z,42.59
2022-08-17T09:57:39.013Z,42.43
2022-08-17T10:00:16.971Z,41.92
2022-08-17T10:03:08.714Z,41.74
2022-08-17T10:05:45.426Z,41.79
2022-08-17T10:08:24.512Z,41.44
2022-08-17T10:11:06.831Z,41.21
2022-08-17T10:13:52.998Z,40.89
2022-08-17T10:16:27.246Z,40.67
2022-08-17T10:19:03.689Z,40.96
2022-08-17T10:22:01.096Z,40.18
2022-08-17T10:25:21.315Z,40.27
2022-08-17T10:27:43.994Z,40.38
2022-08-17T10:30:17.213Z,40.33
2022-08-17T10:32:52.310Z,40.31
2022-08-17T10:35:37.718Z,39.98
2022-08-17T10:38:19.852Z,39.65
2022-08-17T10:40:57.287Z,38.72
2022-08-17T10:43:38.444Z,38.83
2022-08-17T10:46:30.602Z,38.97
2022-08-17T10:49:32.649Z,38.82
2022-08-17T10:52:03.064Z,39.17
2022-08-17T10:54:42.210Z,39.00
2022-08-17T10:57:37.365Z,38.65
2022-08-17T11:00:16.626Z,38.60
2022-08-17T11:02:50.496Z,37.68
2022-08-17T11:05:53.897Z,38.58
2022-08-17T11:09:01.855Z,39.39
2022-08-17T11:12:00.583Z,39.47
2022-08-17T11:14:41.290Z,38.78
2022-08-17T11:17:30.356Z,38.26
2022-08-17T11:20:11.705Z,38.29
2022-08-17T11:23:08.267Z,38.91
2022-08-17T11:25:40.153Z,37.91
2022-08-17T11:28:15.567Z,38.86
2022-08-17T11:30:48.366Z,38.14
2022-08-17T11:33:55.013Z,37.22
2022-08-17T11:36:41.967Z,37.70
2022-08-17T11:39:23.576Z,36.60
2022-08-17T11:41:59.805Z,35.08
2022-08-17T11:44:38.829Z,34.96
2022-08-17T11:47:32.283Z,34.10
2022-08-17T11:50:37.044Z,35.24
2022-08-17T11:53:06.825Z,36.65
2022-08-17T11:56:03.963Z,36.66
2022-08-17T11:58:38.948Z,35.49
2022-08-17T12:01:13.437Z,35.03
2022-08-17T12:03:53.864Z,35.31
2022-08-17T12:06:35.862Z,35.06
2022-08-17T12:09:11.722Z,35.01
2022-08-17T12:12:04.626Z,34.76
2022-08-17T12:15:07.819Z,35.49
2022-08-17T12:17:41.442Z,34.69
2022-08-17T12:20:19.543Z,33.32
2022-08-17T12:22:54.854Z,34.93
2022-08-17T12:25:26.725Z,35.82
2022-08-17T12:28:06.275Z,34.67
2022-08-17T12:30:37.222Z,34.13
2022-08-17T12:33:25.619Z,34.72
2022-08-17T12:35:59.717Z,36.04
2022-08-17T12:38:33.290Z,35.45
2022-08-17T12:41:25.462Z,34.25
2022-08-17T12:44:01.998Z,35.15
2022-08-17T12:46:35.970Z,34.74
2022-08-17T12:49:18.202Z,33.78
2022-08-17T12:51:48.222Z,34.48
2022-08-17T12:54:33.679Z,34.58
2022-08-17T12:57:06.708Z,35.64
2022-08-17T12:59:35.451Z,35.07
2022-08-17T13:02:04.314Z,34.62
2022-08-17T13:04:34.378Z,34.45
2022-08-17T13:07:03.282Z,32.56
2022-08-17T13:09:35.922Z,31.93
2022-08-17T13:12:09.486Z,31.93
2022-08-17T13:14:38.225Z,32.93
2022-08-17T13:17:12.829Z,33.96
2022-08-17T13:19:50.833Z,34.03
2022-08-17T13:22:24.027Z,33.27
2022-08-17T13:24:54.635Z,33.65
2022-08-17T13:27:25.435Z,34.04
2022-08-17T13:29:57.575Z,32.81
2022-08-17T13:32:37.123Z,34.29
2022-08-17T13:35:49.900Z,35.55
2022-08-17T13:38:40.510Z,35.87
2022-08-17T13:41:09.358Z,35.56
2022-08-17T13:43:40.337Z,35.47
2022-08-17T13:46:11.188Z,35.78
2022-08-17T13:48:41.207Z,36.15
2022-08-17T13:51:24.776Z,35.94
2022-08-17T13:54:02.337Z,36.35
2022-08-17T13:56:39.532Z,35.92
2022-08-17T13:59:11.523Z,35.79
2022-08-17T14:01:43.567Z,35.87
2022-08-17T14:04:15.222Z,36.12
2022-08-17T14:06:51.787Z,35.90
2022-08-17T14:09:24.297Z,35.98
2022-08-17T14:11:55.063Z,35.91
2022-08-17T14:14:24.511Z,35.63
2022-08-17T14:16:54.137Z,36.49
2022-08-17T14:19:23.038Z,35.79
2022-08-17T14:21:56.506Z,36.51
2022-08-17T14:24:30.502Z,36.00
2022-08-17T14:27:00.079Z,36.64
2022-08-17T14:29:31.181Z,36.51
2022-08-17T14:32:04.311Z,35.58
2022-08-17T14:34:32.960Z,36.24
2022-08-17T14:37:03.433Z,35.75
2022-08-17T14:39:32.878Z,36.33
2022-08-17T14:42:02.529Z,35.91
2022-08-17T14:44:31.252Z,35.70
2022-08-17T14:46:59.838Z,35.72
2022-08-17T14:49:30.304Z,35.49
2022-08-17T14:51:59.793Z,35.60
2022-08-17T14:54:33.850Z,35.47
2022-08-17T14:57:23.294Z,34.36
2022-08-17T14:59:55.056Z,35.58
2022-08-17T15:02:29.365Z,35.85
2022-08-17T15:05:03.306Z,35.91
2022-08-17T15:07:32.233Z,36.10
2022-08-17T15:10:02.884Z,35.57
2022-08-17T15:12:34.060Z,35.32
2022-08-17T15:15:04.477Z,35.47
2022-08-17T15:17:55.073Z,35.37
2022-08-17T15:20:25.302Z,35.39
2022-08-17T15:22:55.445Z,35.20
2022-08-17T15:25:27.584Z,35.26
2022-08-17T15:27:56.569Z,35.80
2022-08-17T15:30:26.663Z,35.61
2022-08-17T15:32:55.871Z,34.87
2022-08-17T15:35:27.453Z,35.17
2022-08-17T15:38:06.498Z,35.10
2022-08-17T15:40:39.742Z,35.96
2022-08-17T15:43:11.432Z,35.32
2022-08-17T15:45:40.967Z,35.15
2022-08-17T15:48:10.166Z,34.02
2022-08-17T15:50:38.873Z,35.13
2022-08-17T15:53:07.542Z,34.83
2022-08-17T15:55:36.684Z,34.70
2022-08-17T15:58:07.127Z,33.74
2022-08-17T16:00:53.040Z,34.63
2022-08-17T16:03:58.149Z,34.86
2022-08-17T16:06:14.902Z,35.04
2022-08-17T16:08:45.497Z,35.01
2022-08-17T16:11:15.386Z,34.66
2022-08-17T16:13:47.416Z,35.59
2022-08-17T16:16:24.272Z,34.99
2022-08-17T16:18:54.738Z,35.15
2022-08-17T16:21:27.232Z,34.99
2022-08-17T16:23:58.235Z,35.51
2022-08-17T16:26:27.350Z,34.85
2022-08-17T16:28:58.339Z,33.61
2022-08-17T16:31:26.896Z,35.16
2022-08-17T16:34:17.240Z,34.77
2022-08-17T16:36:54.955Z,32.84
2022-08-17T16:39:27.269Z,34.66
2022-08-17T16:41:56.295Z,35.22
2022-08-17T16:44:31.627Z,34.46
2022-08-17T16:47:01.078Z,34.89
2022-08-17T16:49:37.117Z,34.85
2022-08-17T16:52:09.747Z,35.02
2022-08-17T16:54:39.686Z,34.74
2022-08-17T16:57:08.118Z,35.10
2022-08-17T16:59:42.120Z,34.75
2022-08-17T17:02:14.805Z,34.60
2022-08-17T17:04:54.774Z,34.83
2022-08-17T17:07:50.029Z,35.27
2022-08-17T17:10:20.963Z,32.54
2022-08-17T17:13:02.781Z,32.92
2022-08-17T17:15:52.199Z,33.43
2022-08-17T17:18:29.735Z,34.44
2022-08-17T17:20:58.542Z,34.68
2022-08-17T17:23:38.267Z,34.41
2022-08-17T17:26:39.118Z,32.69
2022-08-17T17:29:21.440Z,33.83
2022-08-17T17:31:58.171Z,32.56
2022-08-17T17:34:27.062Z,32.33
2022-08-17T17:36:59.386Z,34.79
2022-08-17T17:39:33.326Z,33.57
2022-08-17T17:42:10.889Z,33.57
2022-08-17T17:44:41.016Z,34.79
2022-08-17T17:47:11.597Z,32.99
2022-08-17T17:49:44.572Z,33.50
2022-08-17T17:52:19.655Z,33.38
2022-08-17T17:54:55.065Z,32.60
2022-08-17T17:57:30.809Z,33.28
2022-08-17T18:00:05.267Z,34.20
2022-08-17T18:02:51.733Z,33.47
2022-08-17T18:05:58.548Z,33.86
2022-08-17T18:08:53.639Z,33.16
2022-08-17T18:11:34.843Z,34.00
2022-08-17T18:14:14.418Z,33.39
2022-08-17T18:16:43.523Z,34.07
2022-08-17T18:19:15.038Z,33.59
2022-08-17T18:21:45.873Z,33.34
2022-08-17T18:24:14.927Z,33.71
2022-08-17T18:26:48.279Z,33.63
2022-08-17T18:29:43.874Z,33.40
2022-08-17T18:32:40.845Z,34.77
2022-08-17T18:35:35.060Z,33.70
2022-08-17T18:38:21.947Z,34.21
2022-08-17T18:41:02.990Z,33.96
2022-08-17T18:43:44.457Z,34.34
2022-08-17T18:46:28.696Z,34.10
2022-08-17T18:49:01.068Z,34.60
2022-08-17T18:51:40.548Z,34.33
2022-08-17T18:54:20.772Z,34.49
2022-08-17T18:56:54.194Z,34.99
2022-08-17T18:59:34.712Z,35.38
2022-08-17T19:02:32.482Z,35.43
2022-08-17T19:05:13.221Z,35.57
2022-08-17T19:07:45.668Z,35.38
2022-08-17T19:10:22.700Z,35.61
2022-08-17T19:12:55.037Z,35.84
2022-08-17T19:15:34.319Z,36.14
2022-08-17T19:18:04.895Z,35.90
2022-08-17T19:20:37.592Z,36.04
2022-08-17T19:23:16.700Z,36.06
2022-08-17T19:25:49.104Z,35.55
2022-08-17T19:28:23.398Z,36.34
2022-08-17T19:30:56.199Z,35.88
2022-08-17T19:33:24.864Z,36.05
2022-08-17T19:36:00.487Z,35.86
2022-08-17T19:38:40.218Z,36.57
2022-08-17T19:41:12.913Z,36.04
2022-08-17T19:44:00.029Z,36.32
2022-08-17T19:46:31.747Z,36.18
2022-08-17T19:49:10.482Z,36.33
2022-08-17T19:51:44.969Z,36.66
2022-08-17T19:54:20.459Z,36.70
2022-08-17T19:56:56.994Z,36.26
2022-08-17T19:59:36.402Z,36.30
2022-08-17T20:02:21.003Z,36.16
2022-08-17T20:04:51.412Z,36.92
2022-08-17T20:07:21.091Z,36.24
2022-08-17T20:09:53.278Z,36.42
2022-08-17T20:12:24.501Z,36.93
2022-08-17T20:14:57.162Z,36.31
2022-08-17T20:17:29.998Z,36.79
2022-08-17T20:20:03.133Z,36.82
2022-08-17T20:22:36.920Z,36.57
2022-08-17T20:25:30.453Z,36.21
2022-08-17T20:28:06.193Z,36.58
2022-08-17T20:30:40.165Z,37.08
2022-08-17T20:33:12.441Z,36.70
2022-08-17T20:36:01.789Z,36.91
2022-08-17T20:38:41.092Z,36.88
2022-08-17T20:41:16.122Z,36.84
2022-08-17T20:43:50.980Z,36.74
2022-08-17T20:46:40.991Z,36.39
2022-08-17T20:49:22.001Z,36.96
2022-08-17T20:52:01.648Z,36.46
2022-08-17T20:54:44.591Z,36.72
2022-08-17T20:57:42.792Z,36.92
2022-08-17T21:00:17.149Z,37.00
2022-08-17T21:02:47.587Z,36.76
2022-08-17T21:05:34.276Z,37.00
2022-08-17T21:08:14.290Z,36.83
2022-08-17T21:10:45.632Z,36.92
2022-08-17T21:13:35.334Z,36.73
2022-08-17T21:16:11.577Z,37.17
2022-08-17T21:18:44.852Z,37.08
2022-08-17T21:21:21.384Z,36.82
2022-08-17T21:24:02.940Z,36.46
2022-08-17T21:26:34.283Z,36.64
2022-08-17T21:29:31.858Z,36.65
2022-08-17T21:32:24.721Z,36.97
2022-08-17T21:35:24.729Z,36.76
2022-08-17T21:37:58.227Z,37.29
2022-08-17T21:40:29.041Z,37.04
2022-08-17T21:43:00.059Z,37.15
2022-08-17T21:45:32.030Z,36.71
2022-08-17T21:48:12.635Z,37.43
2022-08-17T21:50:43.166Z,36.96
2022-08-17T21:53:15.012Z,36.79
2022-08-17T21:55:43.424Z,36.48
2022-08-17T21:58:33.034Z,36.69
2022-08-17T22:01:20.814Z,36.54
2022-08-17T22:04:01.746Z,36.76
2022-08-17T22:06:36.352Z,36.79
2022-08-17T22:09:19.462Z,36.61
2022-08-17T22:11:53.726Z,36.57
2022-08-17T22:14:25.658Z,36.76
2022-08-17T22:17:17.347Z,36.56
2022-08-17T22:19:50.456Z,36.59
2022-08-17T22:22:31.309Z,36.79
2022-08-17T22:25:03.201Z,36.79
2022-08-17T22:27:55.432Z,36.96
2022-08-17T22:30:34.324Z,37.38
2022-08-17T22:33:23.286Z,38.33
2022-08-17T22:36:10.276Z,38.45
2022-08-17T22:38:39.205Z,39.04
2022-08-17T22:41:30.207Z,39.41
2022-08-17T22:44:02.401Z,40.01
2022-08-17T22:46:31.278Z,40.61
2022-08-17T22:49:00.629Z,40.54
2022-08-17T22:51:31.305Z,40.45
2022-08-17T22:54:20.959Z,40.86
2022-08-17T22:57:10.758Z,40.69
2022-08-17T22:59:46.364Z,41.07
2022-08-17T23:02:20.521Z,42.05
2022-08-17T23:04:52.323Z,42.64
2022-08-17T23:07:22.505Z,42.78
2022-08-17T23:09:52.938Z,43.03
2022-08-17T23:12:26.361Z,43.26
2022-08-17T23:15:00.631Z,43.79
2022-08-17T23:17:33.899Z,44.26
2022-08-17T23:20:06.457Z,45.13
2022-08-17T23:22:36.879Z,45.89
2022-08-17T23:25:06.544Z,46.62
2022-08-17T23:27:34.992Z,46.90
2022-08-17T23:30:03.475Z,47.13
2022-08-17T23:32:33.826Z,47.53
2022-08-17T23:35:02.278Z,47.54
2022-08-17T23:37:31.414Z,48.44
2022-08-17T23:40:01.229Z,49.45
2022-08-17T23:42:30.563Z,49.05
2022-08-17T23:44:59.023Z,49.61
2022-08-17T23:47:28.545Z,49.94
2022-08-17T23:49:57.129Z,49.72
2022-08-17T23:52:30.171Z,49.78
2022-08-17T23:54:58.730Z,49.40
2022-08-17T23:57:33.530Z,49.41
